Time;durP1;ratioP1;P1;durP2;ratioP2;P2;SDS_P1;SDS_P2;PMS_P1;PMS_P2;Temp;Humidity;BMP_temperature;BMP_pressure;BME280_temperature;BME280_humidity;BME280_pressure;Samples;Min_cycle;Max_cycle;Signal;HPM_P1;HPM_P2
2024/02/24 00:03:33;;;;;;;5.43;4.90;;;;;;;3.71;100.00;99642.13;10371014;27;20041;-71
2024/02/24 00:08:30;;;;;;;7.88;5.10;;;;;;;3.67;100.00;99648.41;10346204;27;20044;-71
2024/02/24 00:13:26;;;;;;;6.20;4.65;;;;;;;3.70;100.00;99650.53;10357100;27;20075;-71
2024/02/24 00:18:23;;;;;;;5.50;4.70;;;;;;;3.81;100.00;99649.25;10356688;28;20040;-70
2024/02/24 00:23:19;;;;;;;6.03;4.40;;;;;;;3.86;100.00;99643.72;10353179;27;20040;-70
2024/02/24 00:28:16;;;;;;;8.77;4.95;;;;;;;3.88;100.00;99633.41;10351624;27;20564;-74
2024/02/24 00:33:13;;;;;;;4.90;4.30;;;;;;;3.89;100.00;99632.31;10358696;27;20449;-71
2024/02/24 00:38:09;;;;;;;4.93;4.43;;;;;;;3.80;100.00;99628.69;10355758;27;20040;-71
2024/02/24 00:43:06;;;;;;;6.70;5.00;;;;;;;3.76;100.00;99623.09;10354206;27;20070;-71
2024/02/24 00:48:03;;;;;;;6.72;4.20;;;;;;;3.80;100.00;99636.81;10336703;27;20124;-72
2024/02/24 00:53:01;;;;;;;4.45;3.50;;;;;;;3.75;100.00;99636.91;10362501;27;20044;-71
2024/02/24 00:57:58;;;;;;;5.15;4.40;;;;;;;3.64;100.00;99638.97;10358325;27;20523;-70
2024/02/24 01:02:55;;;;;;;5.25;4.53;;;;;;;3.52;100.00;99639.47;10346119;27;20072;-72
2024/02/24 01:07:55;;;;;;;6.47;4.40;;;;;;;3.46;100.00;99634.44;10356235;27;20048;-71
2024/02/24 01:12:52;;;;;;;6.47;4.70;;;;;;;3.50;100.00;99636.25;10351874;27;20071;-71
2024/02/24 01:17:50;;;;;;;7.25;4.63;;;;;;;3.46;100.00;99645.25;10354347;27;20055;-71
2024/02/24 01:22:52;;;;;;;6.03;4.30;;;;;;;3.39;100.00;99645.66;10352904;27;20511;-72
2024/02/24 01:27:49;;;;;;;5.80;4.55;;;;;;;3.38;100.00;99649.44;10347774;27;20048;-71
2024/02/24 01:32:46;;;;;;;6.85;4.90;;;;;;;3.30;100.00;99656.31;10351397;27;20044;-70
2024/02/24 01:37:42;;;;;;;9.35;4.22;;;;;;;3.26;100.00;99663.41;10352614;27;20047;-72
2024/02/24 01:42:42;;;;;;;5.95;4.20;;;;;;;3.19;100.00;99662.97;10355244;27;20036;-71
2024/02/24 01:47:38;;;;;;;4.82;4.38;;;;;;;3.16;100.00;99658.97;10335559;27;20049;-70
2024/02/24 01:52:36;;;;;;;6.88;4.68;;;;;;;3.17;100.00;99655.16;10344941;28;20054;-72
2024/02/24 01:57:36;;;;;;;6.93;4.68;;;;;;;3.11;100.00;99656.34;10360139;27;20052;-70
2024/02/24 02:02:33;;;;;;;8.57;4.63;;;;;;;3.06;100.00;99648.31;10338432;28;20492;-70
2024/02/24 02:07:30;;;;;;;4.95;4.47;;;;;;;3.01;100.00;99651.09;10350387;27;20053;-71
2024/02/24 02:12:27;;;;;;;5.70;4.80;;;;;;;2.97;100.00;99658.19;10344971;27;20085;-71
2024/02/24 02:17:24;;;;;;;6.57;4.63;;;;;;;2.99;100.00;99657.88;10354946;27;20040;-72
2024/02/24 02:22:23;;;;;;;5.65;4.60;;;;;;;2.96;100.00;99664.69;10348795;27;20766;-71
2024/02/24 02:27:19;;;;;;;8.02;4.80;;;;;;;2.93;100.00;99670.66;10346804;27;20044;-69
2024/02/24 02:32:16;;;;;;;8.23;5.00;;;;;;;2.91;100.00;99689.06;10348695;27;20048;-71
2024/02/24 02:37:12;;;;;;;5.32;4.78;;;;;;;2.87;100.00;99685.34;10350286;27;20563;-70
2024/02/24 02:42:09;;;;;;;9.70;4.95;;;;;;;2.80;100.00;99682.19;10343084;27;20044;-71
2024/02/24 02:47:06;;;;;;;11.63;5.18;;;;;;;2.79;100.00;99683.31;10352281;27;20043;-71
2024/02/24 02:52:15;;;;;;;5.75;4.72;;;;;;;2.75;100.00;99674.97;10348945;27;20040;-71
2024/02/24 02:57:11;;;;;;;11.63;5.13;;;;;;;2.72;100.00;99676.34;10353314;27;20421;-71
2024/02/24 03:02:07;;;;;;;8.20;5.85;;;;;;;2.67;100.00;99671.03;10349019;27;20055;-71
2024/02/24 03:07:04;;;;;;;5.85;5.22;;;;;;;2.62;100.00;99681.91;10351466;28;20044;-70
2024/02/24 03:12:00;;;;;;;6.07;4.72;;;;;;;2.57;100.00;99678.44;10353418;27;20044;-71
2024/02/24 03:16:57;;;;;;;8.02;5.03;;;;;;;2.56;100.00;99683.06;10337647;27;20139;-71
2024/02/24 03:21:53;;;;;;;7.88;4.82;;;;;;;2.55;100.00;99692.22;10353883;27;20048;-70
2024/02/24 03:26:50;;;;;;;5.90;5.13;;;;;;;2.50;100.00;99705.78;10343973;28;20091;-71
2024/02/24 03:31:47;;;;;;;5.85;5.25;;;;;;;2.46;100.00;99699.34;10345314;27;20066;-71
2024/02/24 03:36:43;;;;;;;7.43;5.40;;;;;;;2.49;100.00;99688.78;10345884;27;20066;-73
2024/02/24 03:41:40;;;;;;;7.03;5.03;;;;;;;2.48;100.00;99694.47;10344543;27;20132;-71
2024/02/24 03:46:37;;;;;;;8.27;5.38;;;;;;;2.47;100.00;99679.38;10346818;27;20101;-70
2024/02/24 03:51:34;;;;;;;6.05;5.25;;;;;;;2.49;100.00;99694.19;10346739;27;20040;-71
2024/02/24 03:56:31;;;;;;;8.10;5.15;;;;;;;2.45;100.00;99692.34;10347342;27;20067;-71
2024/02/24 04:01:27;;;;;;;6.75;5.20;;;;;;;2.46;100.00;99693.94;10347161;27;20043;-71
2024/02/24 04:06:24;;;;;;;6.03;5.18;;;;;;;2.46;100.00;99699.34;10351185;28;20063;-71
2024/02/24 04:11:20;;;;;;;6.35;5.63;;;;;;;2.44;100.00;99706.97;10353334;28;20078;-71
2024/02/24 04:16:17;;;;;;;6.88;5.70;;;;;;;2.39;100.00;99710.50;10359656;27;20055;-72
2024/02/24 04:21:13;;;;;;;6.57;5.68;;;;;;;2.30;100.00;99710.34;10357335;27;20527;-72
2024/02/24 04:26:10;;;;;;;6.25;5.65;;;;;;;2.26;100.00;99722.78;10352816;27;20067;-72
2024/02/24 04:31:06;;;;;;;8.77;5.28;;;;;;;2.27;100.00;99724.38;10355595;27;20123;-71
2024/02/24 04:36:03;;;;;;;8.07;6.07;;;;;;;2.18;100.00;99731.53;10347794;27;20044;-71
2024/02/24 04:41:00;;;;;;;6.47;5.72;;;;;;;2.14;100.00;99730.47;10352175;27;20142;-71
2024/02/24 04:45:56;;;;;;;10.43;6.35;;;;;;;2.06;100.00;99723.00;10348905;27;20067;-71
2024/02/24 04:50:53;;;;;;;10.93;6.50;;;;;;;2.08;100.00;99720.81;10362316;27;20047;-71
2024/02/24 04:55:49;;;;;;;6.97;6.30;;;;;;;2.12;100.00;99735.34;10344128;27;20044;-70
2024/02/24 05:00:46;;;;;;;13.02;6.40;;;;;;;2.19;100.00;99732.31;10341532;28;20656;-73
2024/02/24 05:05:44;;;;;;;6.70;6.10;;;;;;;2.18;100.00;99731.53;10343673;27;20050;-71
2024/02/24 05:10:40;;;;;;;7.65;6.03;;;;;;;2.23;100.00;99739.56;10354413;27;20051;-71
2024/02/24 05:15:37;;;;;;;7.03;6.43;;;;;;;2.26;100.00;99744.38;10346621;27;20048;-71
2024/02/24 05:20:34;;;;;;;10.75;6.53;;;;;;;2.14;100.00;99746.66;10364958;27;20109;-70
2024/02/24 05:25:30;;;;;;;8.93;6.80;;;;;;;2.01;100.00;99758.09;10345566;27;20495;-71
2024/02/24 05:30:27;;;;;;;11.05;7.03;;;;;;;1.89;100.00;99761.97;10355157;27;20503;-70
2024/02/24 05:35:23;;;;;;;8.88;6.78;;;;;;;1.81;100.00;99770.69;10344589;27;20052;-71
2024/02/24 05:40:20;;;;;;;7.35;6.75;;;;;;;1.82;100.00;99766.91;10358154;27;20048;-72
2024/02/24 05:45:17;;;;;;;8.27;7.32;;;;;;;1.81;100.00;99765.31;10344770;27;20040;-71
2024/02/24 05:50:14;;;;;;;8.27;6.68;;;;;;;1.86;100.00;99762.56;10350454;27;20044;-72
2024/02/24 05:55:13;;;;;;;9.55;7.15;;;;;;;1.86;100.00;99767.94;10351366;27;20048;-72
2024/02/24 06:00:11;;;;;;;8.25;7.32;;;;;;;1.97;100.00;99773.22;10349224;27;20102;-72
2024/02/24 06:05:08;;;;;;;7.82;6.60;;;;;;;2.18;100.00;99771.16;10356697;27;20051;-71
2024/02/24 06:10:06;;;;;;;9.23;6.53;;;;;;;2.30;100.00;99769.69;10350871;27;20058;-71
2024/02/24 06:15:03;;;;;;;7.85;7.15;;;;;;;2.39;100.00;99785.22;10348546;27;20108;-71
2024/02/24 06:19:59;;;;;;;8.65;6.88;;;;;;;2.47;100.00;99782.72;10349599;28;20111;-72
2024/02/24 06:24:55;;;;;;;9.07;6.32;;;;;;;2.61;100.00;99793.63;10347422;27;20454;-72
2024/02/24 06:29:52;;;;;;;8.63;6.40;;;;;;;2.60;100.00;99797.44;10351535;27;20040;-71
2024/02/24 06:34:48;;;;;;;9.40;6.53;;;;;;;2.48;100.00;99795.13;10352006;27;20558;-70
2024/02/24 06:39:45;;;;;;;7.53;6.30;;;;;;;2.40;100.00;99792.25;10346845;28;20420;-70
2024/02/24 06:44:41;;;;;;;7.68;7.05;;;;;;;2.34;100.00;99793.38;10359844;27;20052;-70
2024/02/24 06:49:38;;;;;;;6.93;6.13;;;;;;;2.37;100.00;99799.03;10333272;27;20056;-71
2024/02/24 06:54:38;;;;;;;8.85;6.97;;;;;;;2.31;100.00;99800.94;10343576;27;20530;-70
2024/02/24 06:59:35;;;;;;;9.00;6.72;;;;;;;2.34;100.00;99809.56;10334658;27;20094;-71
2024/02/24 07:04:32;;;;;;;13.68;6.97;;;;;;;2.37;100.00;99809.00;10359329;27;20050;-71
2024/02/24 07:09:29;;;;;;;8.88;6.80;;;;;;;2.49;100.00;99822.91;10353714;27;20055;-73
2024/02/24 07:14:25;;;;;;;10.52;7.10;;;;;;;2.57;100.00;99814.19;10348704;27;20036;-71
2024/02/24 07:19:22;;;;;;;8.05;6.45;;;;;;;2.81;100.00;99824.16;10339689;27;20586;-71
2024/02/24 07:24:18;;;;;;;9.40;6.85;;;;;;;3.06;100.00;99826.56;10345745;27;20125;-71
2024/02/24 07:29:15;;;;;;;10.57;6.72;;;;;;;3.24;100.00;99832.28;10348561;27;20048;-70
2024/02/24 07:34:11;;;;;;;7.63;6.47;;;;;;;3.35;100.00;99823.75;10347470;27;20052;-71
2024/02/24 07:39:08;;;;;;;7.03;6.07;;;;;;;3.42;100.00;99826.09;10350423;27;20039;-70
2024/02/24 07:44:04;;;;;;;11.93;5.80;;;;;;;3.49;100.00;99818.44;10349264;27;20044;-71
2024/02/24 07:49:01;;;;;;;10.07;5.63;;;;;;;3.51;100.00;99815.44;10346386;27;20097;-72
2024/02/24 07:53:58;;;;;;;7.13;5.57;;;;;;;3.42;100.00;99823.41;10333264;28;20036;-71
2024/02/24 07:58:55;;;;;;;11.20;5.97;;;;;;;3.38;100.00;99827.78;10349789;27;20545;-72
2024/02/24 08:03:51;;;;;;;6.65;5.40;;;;;;;3.45;100.00;99847.13;10349096;27;20056;-71
2024/02/24 08:08:48;;;;;;;11.00;6.72;;;;;;;3.58;100.00;99843.72;10354866;27;20150;-72
2024/02/24 08:13:46;;;;;;;8.32;5.70;;;;;;;3.73;100.00;99849.97;10367167;27;20093;-71
2024/02/24 08:18:42;;;;;;;10.15;5.60;;;;;;;3.68;100.00;99852.75;10359947;27;20048;-72
2024/02/24 08:23:39;;;;;;;7.25;5.47;;;;;;;3.71;100.00;99865.69;10349497;27;20043;-71
2024/02/24 08:28:35;;;;;;;7.28;5.53;;;;;;;3.91;100.00;99865.38;10354192;27;20063;-70
2024/02/24 08:33:32;;;;;;;9.45;6.05;;;;;;;4.05;100.00;99872.78;10359612;27;20040;-71
2024/02/24 08:38:28;;;;;;;10.30;5.50;;;;;;;4.15;100.00;99873.38;10357685;27;20101;-71
2024/02/24 08:43:25;;;;;;;7.80;5.53;;;;;;;4.26;100.00;99865.91;10351767;27;20040;-71
2024/02/24 08:48:21;;;;;;;5.30;4.80;;;;;;;4.39;100.00;99861.66;10354720;27;20515;-71
2024/02/24 08:53:18;;;;;;;6.53;5.88;;;;;;;4.46;100.00;99856.66;10353545;27;20089;-72
2024/02/24 08:58:14;;;;;;;10.77;5.65;;;;;;;4.68;100.00;99853.25;10359639;27;20093;-73
2024/02/24 09:03:11;;;;;;;11.40;5.35;;;;;;;4.73;100.00;99857.78;10358995;27;20040;-72
2024/02/24 09:08:07;;;;;;;11.82;5.40;;;;;;;4.92;100.00;99863.09;10347305;27;20052;-70
2024/02/24 09:13:04;;;;;;;6.03;4.88;;;;;;;5.07;100.00;99865.53;10348812;27;20039;-73
2024/02/24 09:18:00;;;;;;;8.52;5.38;;;;;;;5.22;100.00;99873.34;10355698;27;20059;-72
2024/02/24 09:22:57;;;;;;;9.77;5.70;;;;;;;5.30;100.00;99871.84;10365473;27;20415;-70
2024/02/24 09:27:54;;;;;;;9.30;5.18;;;;;;;5.33;100.00;99873.13;10356552;27;20036;-70
2024/02/24 09:32:50;;;;;;;5.22;4.72;;;;;;;5.66;100.00;99887.31;10349692;27;20325;-70
2024/02/24 09:37:47;;;;;;;7.43;5.72;;;;;;;5.64;100.00;99882.22;10348070;27;20491;-71
2024/02/24 09:42:44;;;;;;;8.52;5.65;;;;;;;5.94;100.00;99873.69;10356250;27;20647;-70
2024/02/24 09:47:42;;;;;;;10.10;5.97;;;;;;;5.97;100.00;99882.03;10353547;27;20048;-70
2024/02/24 09:52:39;;;;;;;8.25;5.93;;;;;;;5.91;100.00;99885.94;10348163;27;20048;-71
2024/02/24 09:57:38;;;;;;;8.30;5.47;;;;;;;6.01;100.00;99888.47;10350650;27;20043;-70
2024/02/24 10:02:34;;;;;;;6.43;5.82;;;;;;;6.42;100.00;99882.03;10355369;27;20094;-70
2024/02/24 10:07:34;;;;;;;7.63;5.68;;;;;;;6.71;100.00;99883.50;10344487;27;20067;-70
2024/02/24 10:12:30;;;;;;;6.47;5.75;;;;;;;6.61;100.00;99900.03;10358972;27;20036;-71
2024/02/24 10:17:29;;;;;;;7.43;5.50;;;;;;;6.61;100.00;99900.03;10341687;28;20492;-71
2024/02/24 10:22:25;;;;;;;5.65;5.10;;;;;;;7.96;100.00;99888.56;10352459;27;20036;-71
2024/02/24 10:27:22;;;;;;;6.85;5.32;;;;;;;-146.18;100.00;67994.34;10350074;27;20534;-71
2024/02/24 10:32:20;;;;;;;5.72;5.00;;;;;;;-146.18;100.00;67994.34;10355805;27;20035;-71
2024/02/24 10:37:17;;;;;;;7.40;5.13;;;;;;;-146.18;100.00;67994.34;10341796;27;20113;-70
2024/02/24 10:42:14;;;;;;;7.55;5.90;;;;;;;-146.18;100.00;67994.34;10358359;27;20051;-71
2024/02/24 10:47:11;;;;;;;7.32;5.53;;;;;;;-146.18;100.00;67994.34;10349729;27;20064;-72
2024/02/24 10:52:08;;;;;;;7.00;4.90;;;;;;;-146.18;100.00;67994.34;10352191;27;20489;-72
2024/02/24 10:57:06;;;;;;;7.82;5.78;;;;;;;-146.18;100.00;67994.34;10357977;27;20101;-73
2024/02/24 11:02:03;;;;;;;7.03;5.75;;;;;;;-146.18;100.00;67994.34;10345213;27;20052;-72
2024/02/24 11:07:00;;;;;;;5.10;4.60;;;;;;;-146.18;100.00;67994.34;10348961;27;20040;-72
2024/02/24 11:12:06;;;;;;;5.00;4.50;;;;;;;-146.18;100.00;67994.34;10361998;27;20134;-71
2024/02/24 11:17:04;;;;;;;5.50;4.60;;;;;;;-146.18;100.00;67994.34;10346483;27;20725;-72
2024/02/24 11:22:02;;;;;;;6.82;4.85;;;;;;;-146.18;100.00;67994.34;10353399;27;20048;-71
2024/02/24 11:27:00;;;;;;;5.47;4.72;;;;;;;-146.18;100.00;67994.34;10376144;28;20069;-70
2024/02/24 11:32:08;;;;;;;4.88;4.30;;;;;;;-146.18;100.00;67994.34;10359085;27;20039;-71
2024/02/24 11:37:06;;;;;;;5.43;4.47;;;;;;;-146.18;100.00;67994.34;10359260;28;20507;-73
2024/02/24 11:42:03;;;;;;;6.70;4.80;;;;;;;-146.18;100.00;67994.34;10356075;27;20091;-72
2024/02/24 11:46:59;;;;;;;5.55;5.05;;;;;;;-146.18;100.00;67994.34;10366798;27;20044;-69
2024/02/24 11:51:56;;;;;;;6.30;5.00;;;;;;;-146.18;100.00;67994.34;10359592;27;20129;-70
2024/02/24 11:56:53;;;;;;;6.10;5.20;;;;;;;-146.18;100.00;67994.34;10359969;27;20044;-71
2024/02/24 12:01:49;;;;;;;4.78;4.30;;;;;;;-146.18;100.00;67994.34;10360813;27;20113;-72
2024/02/24 12:06:47;;;;;;;5.22;4.72;;;;;;;-146.18;100.00;67994.34;10354949;27;20044;-72
2024/02/24 12:11:44;;;;;;;5.15;4.30;;;;;;;-146.18;100.00;67994.34;10360844;27;20117;-71
2024/02/24 12:16:41;;;;;;;4.80;4.40;;;;;;;-146.18;100.00;67994.34;10354136;27;20055;-71
2024/02/24 12:21:37;;;;;;;5.03;4.50;;;;;;;-146.18;100.00;67994.34;10352971;27;20496;-72
2024/02/24 12:26:34;;;;;;;5.45;4.40;;;;;;;-146.18;100.00;67994.34;10358947;27;20111;-71
2024/02/24 12:31:30;;;;;;;4.85;4.45;;;;;;;-146.18;100.00;67994.34;10362248;27;20047;-71
2024/02/24 12:36:32;;;;;;;5.88;4.70;;;;;;;-146.18;100.00;67994.34;10352647;27;20048;-72
2024/02/24 12:41:28;;;;;;;4.25;3.88;;;;;;;-146.18;100.00;67994.34;10352545;27;20051;-72
2024/02/24 12:46:25;;;;;;;6.13;4.57;;;;;;;-146.18;100.00;67994.34;10362658;27;20586;-71
2024/02/24 12:51:22;;;;;;;4.30;4.00;;;;;;;-146.18;100.00;67994.34;10355919;27;20568;-71
2024/02/24 12:56:18;;;;;;;5.10;3.88;;;;;;;-146.18;100.00;67994.34;10356045;27;20052;-71
2024/02/24 13:01:15;;;;;;;6.15;4.57;;;;;;;-146.18;100.00;67994.34;10362618;27;20090;-71
2024/02/24 13:06:12;;;;;;;5.00;4.53;;;;;;;-146.18;100.00;67994.34;10350683;28;20501;-72
2024/02/24 13:11:09;;;;;;;4.90;4.32;;;;;;;-146.18;100.00;67994.34;10354225;27;20131;-70
2024/02/24 13:16:05;;;;;;;5.20;4.70;;;;;;;-146.18;100.00;67994.34;10351848;27;20071;-73
2024/02/24 13:21:02;;;;;;;4.88;4.25;;;;;;;-146.18;100.00;67994.34;10362429;27;20059;-71
2024/02/24 13:25:59;;;;;;;5.75;4.50;;;;;;;-146.18;100.00;67994.34;10349276;27;20044;-71
2024/02/24 13:30:55;;;;;;;4.50;4.10;;;;;;;-146.18;100.00;67994.34;10353932;27;20439;-71
2024/02/24 13:35:52;;;;;;;4.70;4.20;;;;;;;-146.18;100.00;67994.34;10361138;27;20052;-70
2024/02/24 13:40:49;;;;;;;4.80;4.40;;;;;;;-146.18;100.00;67994.34;10357735;27;20059;-71
2024/02/24 13:45:47;;;;;;;4.60;4.20;;;;;;;-146.18;100.00;67994.34;10359248;27;20047;-72
2024/02/24 13:50:43;;;;;;;4.90;4.40;;;;;;;-146.18;100.00;67994.34;10355047;27;20738;-72
2024/02/24 13:55:40;;;;;;;6.22;4.45;;;;;;;-146.18;100.00;67994.34;10345959;27;20539;-72
2024/02/24 14:00:36;;;;;;;5.30;4.25;;;;;;;-146.18;100.00;67994.34;10350205;27;20404;-71
2024/02/24 14:05:33;;;;;;;4.57;4.10;;;;;;;-146.18;100.00;67994.34;10352504;27;20381;-71
2024/02/24 14:10:30;;;;;;;4.57;4.15;;;;;;;-146.18;100.00;67994.34;10353850;27;20131;-71
2024/02/24 14:15:26;;;;;;;4.63;4.30;;;;;;;-146.18;100.00;67994.34;10345090;27;20040;-72
2024/02/24 14:20:25;;;;;;;3.97;3.45;;;;;;;-146.18;100.00;67994.34;10350420;28;20443;-71
2024/02/24 14:25:25;;;;;;;4.85;3.90;;;;;;;-146.18;100.00;67994.34;10351322;27;20074;-71
2024/02/24 14:30:21;;;;;;;6.07;4.40;;;;;;;-146.18;100.00;67994.34;10332368;27;20495;-72
2024/02/24 14:35:19;;;;;;;4.47;4.05;;;;;;;-146.18;100.00;67994.34;10333216;27;20098;-71
2024/02/24 14:40:16;;;;;;;5.72;3.97;;;;;;;-146.18;100.00;67994.34;10350846;27;20056;-71
2024/02/24 14:45:13;;;;;;;4.28;3.83;;;;;;;-146.18;100.00;67994.34;10339526;27;20052;-73
2024/02/24 14:50:09;;;;;;;6.47;4.40;;;;;;;-146.18;100.00;67994.34;10340524;27;20044;-70
2024/02/24 14:55:06;;;;;;;5.97;4.47;;;;;;;-146.18;100.00;67994.34;10336270;27;20044;-71
2024/02/24 15:00:11;;;;;;;4.63;4.10;;;;;;;-146.18;100.00;67994.34;10339555;27;20045;-70
2024/02/24 15:05:09;;;;;;;9.30;4.88;;;;;;;-146.18;100.00;67994.34;10340958;27;20048;-70
2024/02/24 15:10:06;;;;;;;4.60;4.13;;;;;;;-146.18;100.00;67994.34;10355982;27;20354;-70
2024/02/24 15:15:03;;;;;;;5.30;4.20;;;;;;;-146.18;100.00;67994.34;10343473;27;20044;-70
2024/02/24 15:20:00;;;;;;;5.55;4.22;;;;;;;-146.18;100.00;67994.34;10354664;28;20040;-70
2024/02/24 15:24:59;;;;;;;4.80;4.38;;;;;;;-146.18;100.00;67994.34;10346785;28;20063;-70
2024/02/24 15:29:56;;;;;;;5.93;4.00;;;;;;;-146.18;100.00;67994.34;10341249;27;20074;-71
2024/02/24 15:34:52;;;;;;;4.28;3.88;;;;;;;-146.18;100.00;67994.34;10348880;27;20064;-70
2024/02/24 15:39:49;;;;;;;4.32;3.80;;;;;;;-146.18;100.00;67994.34;10340830;27;20054;-72
2024/02/24 15:44:45;;;;;;;4.40;4.00;;;;;;;-146.18;100.00;67994.34;10349423;27;20152;-71
2024/02/24 15:49:42;;;;;;;5.63;5.18;;;;;;;-146.18;100.00;67994.34;10346696;28;20044;-70
2024/02/24 15:54:39;;;;;;;6.10;5.50;;;;;;;-146.18;100.00;67994.34;10344788;27;20131;-71
2024/02/24 15:59:35;;;;;;;6.35;5.80;;;;;;;-146.18;100.00;67994.34;10355242;27;20037;-72
2024/02/24 16:04:32;;;;;;;6.68;6.07;;;;;;;-146.18;100.00;67994.34;10339754;28;20758;-73
2024/02/24 16:09:29;;;;;;;6.45;5.95;;;;;;;-146.18;100.00;67994.34;10358002;27;20036;-73
2024/02/24 16:14:26;;;;;;;6.65;6.13;;;;;;;-146.18;100.00;67994.34;10359143;27;20084;-73
2024/02/24 16:19:22;;;;;;;6.93;6.43;;;;;;;-146.18;100.00;67994.34;10357204;28;20414;-73
2024/02/24 16:24:19;;;;;;;6.50;6.00;;;;;;;-146.18;100.00;67994.34;10355581;27;20052;-72
2024/02/24 16:29:16;;;;;;;7.18;6.47;;;;;;;-146.18;100.00;67994.34;10353587;27;20522;-73
2024/02/24 16:34:13;;;;;;;6.40;5.80;;;;;;;-146.18;100.00;67994.34;10358064;27;20047;-72
2024/02/24 16:39:10;;;;;;;5.65;5.20;;;;;;;-146.18;100.00;67994.34;10349960;27;20048;-73
2024/02/24 16:44:06;;;;;;;6.50;6.00;;;;;;;-146.18;100.00;67994.34;10343775;27;20060;-73
2024/02/24 16:49:05;;;;;;;7.07;6.47;;;;;;;-146.18;100.00;67994.34;10343402;27;20058;-73
2024/02/24 16:54:02;;;;;;;6.57;6.07;;;;;;;-146.18;100.00;67994.34;10353389;27;20055;-72
2024/02/24 16:58:59;;;;;;;6.97;6.47;;;;;;;-146.18;100.00;67994.34;10333513;27;20068;-73
2024/02/24 17:03:56;;;;;;;7.45;6.85;;;;;;;-146.18;100.00;67994.34;10352947;27;20089;-72
2024/02/24 17:08:52;;;;;;;8.45;7.75;;;;;;;-146.18;100.00;67994.34;10358914;27;20044;-72
2024/02/24 17:13:49;;;;;;;8.40;7.70;;;;;;;-146.18;100.00;67994.34;10348589;28;20054;-73
2024/02/24 17:18:45;;;;;;;8.98;8.18;;;;;;;-146.18;100.00;67994.34;10349061;27;20478;-73
2024/02/24 17:23:42;;;;;;;8.57;7.88;;;;;;;-146.18;100.00;67994.34;10352329;27;20036;-73
2024/02/24 17:28:39;;;;;;;9.35;7.88;;;;;;;-146.18;100.00;67994.34;10346676;28;20037;-72
2024/02/24 17:33:36;;;;;;;9.30;8.40;;;;;;;-146.18;100.00;67994.34;10345266;28;20651;-72
2024/02/24 17:38:32;;;;;;;9.20;8.40;;;;;;;-146.18;100.00;67994.34;10345959;27;20044;-72
2024/02/24 17:43:29;;;;;;;11.57;9.63;;;;;;;-146.18;100.00;67994.34;10346136;27;20049;-72
2024/02/24 17:48:26;;;;;;;8.18;7.45;;;;;;;-146.18;100.00;67994.34;10347762;27;20083;-74
2024/02/24 17:53:23;;;;;;;7.60;6.90;;;;;;;-146.18;100.00;67994.34;10348206;27;20513;-72
2024/02/24 17:58:20;;;;;;;8.10;7.40;;;;;;;-146.18;100.00;67994.34;10345751;27;20078;-73
2024/02/24 18:03:31;;;;;;;7.43;6.72;;;;;;;-146.18;100.00;67994.34;10354554;27;20331;-73
2024/02/24 18:08:28;;;;;;;7.65;7.05;;;;;;;-146.18;100.00;67994.34;10348984;27;20047;-72
2024/02/24 18:13:24;;;;;;;8.32;7.63;;;;;;;-146.18;100.00;67994.34;10340606;27;20127;-73
2024/02/24 18:18:21;;;;;;;8.32;7.70;;;;;;;-146.18;100.00;67994.34;10341201;27;20109;-73
2024/02/24 18:23:17;;;;;;;8.13;7.53;;;;;;;-146.18;100.00;67994.34;10335523;28;20055;-73
2024/02/24 18:28:14;;;;;;;8.65;7.75;;;;;;;-146.18;100.00;67994.34;10344354;27;20051;-73
2024/02/24 18:33:11;;;;;;;8.05;7.45;;;;;;;-146.18;100.00;67994.34;10341682;27;20048;-72
2024/02/24 18:38:08;;;;;;;11.25;9.95;;;;;;;-146.18;100.00;67994.34;10341101;27;20448;-74
2024/02/24 18:43:05;;;;;;;8.98;8.38;;;;;;;-146.18;100.00;67994.34;10330152;27;20048;-73
2024/02/24 18:48:02;;;;;;;8.80;7.95;;;;;;;-146.18;100.00;67994.34;10350276;27;20137;-72
2024/02/24 18:52:59;;;;;;;8.98;8.27;;;;;;;-146.18;100.00;67994.34;10345736;27;20044;-71
2024/02/24 18:57:55;;;;;;;9.15;8.40;;;;;;;-146.18;100.00;67994.34;10337508;28;20051;-73
2024/02/24 19:02:52;;;;;;;8.98;8.27;;;;;;;-146.18;100.00;67994.34;10348517;27;20055;-73
2024/02/24 19:07:52;;;;;;;8.20;7.60;;;;;;;-146.18;100.00;67994.34;10351749;27;20598;-73
2024/02/24 19:12:55;;;;;;;8.32;7.63;;;;;;;-146.18;100.00;67994.34;10326425;28;20052;-73
2024/02/24 19:17:51;;;;;;;8.38;7.68;;;;;;;-146.18;100.00;67994.34;10339697;27;20335;-72
2024/02/24 19:22:48;;;;;;;8.27;7.60;;;;;;;-146.18;100.00;67994.34;10329876;27;20048;-73
2024/02/24 19:27:46;;;;;;;8.45;7.75;;;;;;;-146.18;100.00;67994.34;10338349;27;20176;-72
2024/02/24 19:32:43;;;;;;;8.25;7.63;;;;;;;-146.18;100.00;67994.34;10347065;28;20699;-72
2024/02/24 19:37:42;;;;;;;9.10;8.30;;;;;;;-146.18;100.00;67994.34;10349512;27;20126;-73
2024/02/24 19:42:39;;;;;;;9.75;8.73;;;;;;;-146.18;100.00;67994.34;10336301;27;20089;-73
2024/02/24 19:47:35;;;;;;;9.20;8.50;;;;;;;-146.18;100.00;67994.34;10368367;27;20155;-72
2024/02/24 19:52:34;;;;;;;9.65;8.85;;;;;;;-146.18;100.00;67994.34;10351602;27;20068;-73
2024/02/24 19:57:30;;;;;;;9.90;9.00;;;;;;;-146.18;100.00;67994.34;10357301;27;20052;-72
2024/02/24 20:02:28;;;;;;;10.07;9.27;;;;;;;-146.18;100.00;67994.34;10354514;27;20162;-72
2024/02/24 20:07:26;;;;;;;9.50;8.80;;;;;;;-146.18;100.00;67994.34;10353198;27;20135;-74
2024/02/24 20:12:23;;;;;;;8.98;8.27;;;;;;;-146.18;100.00;67994.34;10347834;27;20040;-73
2024/02/24 20:17:19;;;;;;;8.90;8.20;;;;;;;-146.18;100.00;67994.34;10343824;27;20086;-74
2024/02/24 20:22:16;;;;;;;9.77;8.90;;;;;;;-146.18;100.00;67994.34;10355356;27;20043;-70
2024/02/24 20:27:13;;;;;;;10.43;9.23;;;;;;;-146.18;100.00;67994.34;10352628;27;20040;-72
2024/02/24 20:32:10;;;;;;;8.23;7.43;;;;;;;-146.18;100.00;67994.34;10357569;27;20044;-70
2024/02/24 20:37:07;;;;;;;6.80;6.20;;;;;;;-146.18;100.00;67994.34;10356249;27;20541;-71
2024/02/24 20:42:03;;;;;;;10.00;8.38;;;;;;;-146.18;100.00;67994.34;10344440;27;20060;-71
2024/02/24 20:47:00;;;;;;;17.67;11.85;;;;;;;-146.18;100.00;67994.34;10344124;27;20087;-71
2024/02/24 20:51:59;;;;;;;5.60;5.07;;;;;;;-146.18;100.00;67994.34;10356090;27;20050;-71
2024/02/24 20:56:56;;;;;;;5.63;5.07;;;;;;;-146.18;100.00;67994.34;10348042;27;20538;-71
2024/02/24 21:01:52;;;;;;;5.55;5.05;;;;;;;-146.18;100.00;67994.34;10353195;27;20469;-70
2024/02/24 21:06:49;;;;;;;5.43;5.03;;;;;;;-146.18;100.00;67994.34;10352620;27;20143;-71
2024/02/24 21:11:45;;;;;;;5.93;5.43;;;;;;;-146.18;100.00;67994.34;10343315;27;20045;-71
2024/02/24 21:16:42;;;;;;;5.15;4.75;;;;;;;-146.18;100.00;67994.34;10356926;27;20122;-71
2024/02/24 21:21:39;;;;;;;6.28;5.53;;;;;;;-146.18;100.00;67994.34;10352297;27;20523;-71
2024/02/24 21:26:36;;;;;;;6.00;5.45;;;;;;;-146.18;100.00;67994.34;10349706;28;20040;-71
2024/02/24 21:31:33;;;;;;;5.97;5.43;;;;;;;-146.18;100.00;67994.34;10341307;27;20078;-71
2024/02/24 21:36:32;;;;;;;5.93;5.53;;;;;;;-146.18;100.00;67994.34;10338124;27;20591;-71
2024/02/24 21:41:35;;;;;;;6.22;5.70;;;;;;;-146.18;100.00;67994.34;10357892;27;20130;-71
2024/02/24 21:46:32;;;;;;;5.93;5.43;;;;;;;-146.18;100.00;67994.34;10355064;28;20662;-70
2024/02/24 21:51:29;;;;;;;7.07;6.47;;;;;;;-146.18;100.00;67994.34;10341402;27;20079;-70
2024/02/24 21:56:26;;;;;;;7.75;7.15;;;;;;;-146.18;100.00;67994.34;10348031;27;20515;-71
2024/02/24 22:01:24;;;;;;;7.15;6.55;;;;;;;-146.18;100.00;67994.34;10350223;27;20371;-71
2024/02/24 22:06:21;;;;;;;7.38;6.78;;;;;;;-146.18;100.00;67994.34;10351361;27;20051;-71
2024/02/24 22:11:17;;;;;;;7.57;6.78;;;;;;;-146.18;100.00;67994.34;10349010;27;20040;-71
2024/02/24 22:16:14;;;;;;;7.20;6.70;;;;;;;-146.18;100.00;67994.34;10348996;27;20483;-72
2024/02/24 22:21:11;;;;;;;7.05;6.45;;;;;;;-146.18;100.00;67994.34;10360668;27;20294;-70
2024/02/24 22:26:07;;;;;;;7.15;6.55;;;;;;;-146.18;100.00;67994.34;10355450;27;20044;-71
2024/02/24 22:31:07;;;;;;;7.75;7.05;;;;;;;-146.18;100.00;67994.34;10353217;27;20048;-70
2024/02/24 22:36:06;;;;;;;7.93;7.13;;;;;;;-146.18;100.00;67994.34;10357373;27;20510;-71